Αρχική σελίδα
METAR-TAF:

METAR-TAF

Αεροδρόμια :

Διεθνές Αεροδρόμιο Χίθροου

Λονδίνο Χίθροου, Αγγλία

γεωγραφικό πλάτος: 51-29N, γεωγραφικό μήκος: 000-27W, υψόμετρο: 24 μ

Παρών καιρός

Η αναφορά έγινε 31 λεπτά πριν, στις 20:50 UTC
Άνεμος 8 kt από Δ
Θερμοκρασία 18°C
Υγρασία 64%
Πίεση 1021 hPa
Ορατότητα 10 χλμ και άνω

METAR: EGLL 172050Z AUTO 27008KT 9999 NCD 18/11 Q1021 NOSIG

Χρόνος: 22:21 (21:21 UTC)

Πρόγνωση Καιρού

Η αναφορά έγινε 4 ώρες και 20 λεπτά πριν, στις 17:01 UTC
Η πρόγνωση ισχύει από τις 17 στις 18 UTC έως τις 18 στις 24 UTC
Άνεμος 10 kt από Δ/ΝΔ
Ορατότητα 10 χλμ και άνω
Διάσπαρτα νέφη σε ύψος 4800 πόδια
Πιθανότητα 30% :
Προσωρινά
από 18 στις 00 UTC έως τις 18 στις 07 UTC
Αρκετά νέφη σε ύψος 1400 πόδια

TAF: EGLL 171701Z 1718/1824 24010KT 9999 SCT048 PROB30 TEMPO 1800/1807 BKN014

Μετεωρολογικές αναφορές και προγνώσεις για περισσότερα από 4000 αεροδρόμια (δελτία METAR και TAF).

Οι διαθέσιμοι σταθμοί απεικονίζονται στο χάρτη με κίτρινες και κόκκινες κουκκίδες.

Μετακινήστε το ποντίκι πάνω από τις κουκκίδες για να δείτε το όνομα του σταθμού.

Στη συνέχεια, κάντε κλικ για να δείτε τις μετεωρολογικές αναφορές και τις προγνώσεις καιρού.

Για να αλλάξετε το χάρτη: κάντε κλικ στα πράσινα κουμπιά με τον μαύρο σταυρό για να ζουμάρετε, στο πράσινο κουμπί με την παύλα για να αφαιρέσετε το ζουμ ή στα πράσινα βέλη για να αντιπαραβάλλετε χάρτες.


METAR-TAF: